Aérodrome :
LOGIN :

S'inscrire | Disclaimer

   EN    FR    IT 

 










Légende :    VFR   VFR Marginal   IFR   IFR Intensif   IFR Très Intensif
Visi : 
Plafond : 
>= 8 km
>= 3000ft
5 à 8 km
1000 à 3000 ft
1500m à 5 km
500 à 1000 ft
800 à 1500m
200 à 500 ft
< 800m
< 200 ft
Symboles :   Orages  Brouillard  Fortes neiges  Fortes précipitations  Vent > 20 kt
SIGMETs :   Divers  Orages  Givrage  Turbulence  Onde Orograph.  Cendres Volcan.







- Altitude de l'aérodrome : 779 ft
- Code IATA : CMF
- Voir les cartes d'approche


LFLB - Chambery / Aix-Les-Bains

DERNIER METAR :
  • 261830Z AUTO VRB02KT CAVOK 24/16 Q1015 NOSIG

METARs EXPIRÉS :
  • 261800Z AUTO VRB01KT CAVOK 25/16 Q1015 NOSIG
  • 261730Z AUTO 00000KT 9999 FEW068 26/18 Q1015 NOSIG
  • 261700Z AUTO VRB03KT CAVOK 27/17 Q1015 NOSIG
  • 261630Z AUTO 36003KT 340V040 CAVOK 28/16 Q1015 NOSIG
  • 261600Z AUTO 34005KT CAVOK 28/15 Q1015 NOSIG

TAF TAF LFLB
Valide du 26 à 12h jusqu'au 27 à 12h UTC


261100Z 2612/2712 VRB03KT CAVOK
Pas de NOTAMs connus pour ce terrain.



MET'MAP, la Météo Aéronautique d'un coup d'oeil ! - Copyright ORBIFLY Décembre 2007 - Disclaimer

ORBIFLY MET'MAP TEAM :

Programmation & Développement : Alexandra Zaïnal
Conception & Développement : Baudouin d'Aumeries
Co-Programmation & Développement : Marc-Olivier Méhu
Soutien technique & logistique : Manuel Goepfert

Contact : metmap@orbifly.com




SOURCES & CREDITS :

   NOAA